createdAt,value
2019-06-20T00:00:49.482Z,23.00
2019-06-20T00:03:19.212Z,22.90
2019-06-20T00:05:51.501Z,23.00
2019-06-20T00:08:20.600Z,23.00
2019-06-20T00:10:49.797Z,22.10
2019-06-20T00:13:18.677Z,21.00
2019-06-20T00:15:47.495Z,20.10
2019-06-20T00:18:16.307Z,19.60
2019-06-20T00:20:45.137Z,19.30
2019-06-20T00:23:13.907Z,19.10
2019-06-20T00:25:42.747Z,19.00
2019-06-20T00:28:11.534Z,18.90
2019-06-20T00:30:40.729Z,18.90
2019-06-20T00:33:10.942Z,19.00
2019-06-20T00:35:39.848Z,19.00
2019-06-20T00:38:08.737Z,18.90
2019-06-20T00:43:16.975Z,18.70
2019-06-20T00:45:36.641Z,18.70
2019-06-20T00:48:05.503Z,18.70
2019-06-20T00:53:02.876Z,18.80
2019-06-20T00:55:31.725Z,19.20
2019-06-20T00:58:01.608Z,19.20
2019-06-20T01:00:30.505Z,19.20
2019-06-20T01:02:59.472Z,19.40
2019-06-20T01:05:28.333Z,19.70
2019-06-20T01:07:57.144Z,19.80
2019-06-20T01:10:26.048Z,19.80
2019-06-20T01:12:54.845Z,19.90
2019-06-20T01:15:23.710Z,19.80
2019-06-20T01:17:52.634Z,20.00
2019-06-20T01:20:21.877Z,20.10
2019-06-20T01:22:50.785Z,19.90
2019-06-20T01:25:35.366Z,20.00
2019-06-20T01:28:04.347Z,20.20
2019-06-20T01:30:33.212Z,20.10
2019-06-20T01:33:02.007Z,20.30
2019-06-20T01:35:30.849Z,20.20
2019-06-20T01:37:59.674Z,20.10
2019-06-20T01:40:28.535Z,20.00
2019-06-20T01:42:57.319Z,19.90
2019-06-20T01:45:26.296Z,19.80
2019-06-20T01:47:55.416Z,19.80
2019-06-20T01:50:24.384Z,19.60
2019-06-20T01:52:53.172Z,19.50
2019-06-20T01:55:22.118Z,19.50
2019-06-20T01:57:50.989Z,19.40
2019-06-20T02:00:33.419Z,19.40
2019-06-20T02:03:02.386Z,19.30
2019-06-20T02:05:31.244Z,19.30
2019-06-20T02:08:00.190Z,19.20
2019-06-20T02:10:29.036Z,19.10
2019-06-20T02:12:57.976Z,19.10
2019-06-20T02:15:26.908Z,19.00
2019-06-20T02:17:55.877Z,19.00
2019-06-20T02:20:30.386Z,19.00
2019-06-20T02:22:59.410Z,19.00
2019-06-20T02:25:28.368Z,18.90
2019-06-20T02:27:57.384Z,18.80
2019-06-20T02:30:26.486Z,18.80
2019-06-20T02:32:55.372Z,18.80
2019-06-20T02:35:24.382Z,18.80
2019-06-20T02:37:53.221Z,18.80
2019-06-20T02:40:24.126Z,18.80
2019-06-20T02:42:52.913Z,18.80
2019-06-20T02:45:21.904Z,18.70
2019-06-20T02:47:50.901Z,18.70
2019-06-20T02:50:19.956Z,18.60
2019-06-20T02:52:48.882Z,18.60
2019-06-20T02:55:17.826Z,18.70
2019-06-20T02:57:46.744Z,18.70
2019-06-20T03:00:16.222Z,18.60
2019-06-20T03:02:45.034Z,18.60
2019-06-20T03:05:14.314Z,18.70
2019-06-20T03:07:43.254Z,18.60
2019-06-20T03:10:12.259Z,18.50
2019-06-20T03:12:41.185Z,18.50
2019-06-20T03:15:10.080Z,18.50
2019-06-20T03:17:38.943Z,18.60
2019-06-20T03:20:10.193Z,18.50
2019-06-20T03:22:39.181Z,18.60
2019-06-20T03:25:07.968Z,18.50
2019-06-20T03:27:36.772Z,18.50
2019-06-20T03:30:06.155Z,18.50
2019-06-20T03:32:35.018Z,18.50
2019-06-20T03:35:04.431Z,18.50
2019-06-20T03:37:33.222Z,18.50
2019-06-20T03:40:02.082Z,18.50
2019-06-20T03:42:30.848Z,18.50
2019-06-20T03:45:02.547Z,18.50
2019-06-20T03:47:30.293Z,18.60
2019-06-20T03:49:59.164Z,18.60
2019-06-20T03:52:28.002Z,18.60
2019-06-20T03:54:56.802Z,18.60
2019-06-20T03:57:25.752Z,18.60
2019-06-20T03:59:54.615Z,18.70
2019-06-20T04:02:23.451Z,18.60
2019-06-20T04:04:52.339Z,18.70
2019-06-20T04:07:21.223Z,18.70
2019-06-20T04:09:50.000Z,18.70
2019-06-20T04:12:18.834Z,18.80
2019-06-20T04:14:49.117Z,18.80
2019-06-20T04:17:18.233Z,18.80
2019-06-20T04:19:47.185Z,18.90
2019-06-20T04:22:16.150Z,18.90
2019-06-20T04:24:45.067Z,19.00
2019-06-20T04:27:13.847Z,19.00
2019-06-20T04:29:42.680Z,19.10
2019-06-20T04:32:11.507Z,19.20
2019-06-20T04:34:40.295Z,19.30
2019-06-20T04:37:09.183Z,19.40
2019-06-20T04:39:38.027Z,19.40
2019-06-20T04:42:06.863Z,19.50
2019-06-20T04:44:35.676Z,19.60
2019-06-20T04:47:08.761Z,19.70
2019-06-20T04:49:37.578Z,19.70
2019-06-20T04:52:06.566Z,19.80
2019-06-20T04:54:35.515Z,19.90
2019-06-20T04:57:04.405Z,20.00
2019-06-20T04:59:33.247Z,20.10
2019-06-20T05:02:02.213Z,20.20
2019-06-20T05:04:31.184Z,20.20
2019-06-20T05:07:07.397Z,20.40
2019-06-20T05:09:36.234Z,20.70
2019-06-20T05:12:05.166Z,20.90
2019-06-20T05:14:38.302Z,21.00
2019-06-20T05:17:07.448Z,21.20
2019-06-20T05:19:36.392Z,21.30
2019-06-20T05:22:05.325Z,21.30
2019-06-20T05:24:34.284Z,21.40
2019-06-20T05:27:03.153Z,21.40
2019-06-20T05:29:31.979Z,21.50
2019-06-20T05:32:00.852Z,21.70
2019-06-20T05:34:29.828Z,21.80
2019-06-20T05:36:58.616Z,21.90
2019-06-20T05:39:27.634Z,22.10
2019-06-20T05:41:56.515Z,22.30
2019-06-20T05:44:25.522Z,22.50
2019-06-20T05:47:08.514Z,22.50
2019-06-20T05:49:24.905Z,22.40
2019-06-20T05:51:53.784Z,22.30
2019-06-20T05:54:22.618Z,22.20
2019-06-20T05:56:51.413Z,22.30
2019-06-20T05:59:20.248Z,22.20
2019-06-20T06:01:49.053Z,22.00
2019-06-20T06:04:18.040Z,21.90
2019-06-20T06:06:47.565Z,21.80
2019-06-20T06:09:16.469Z,21.80
2019-06-20T06:11:45.505Z,21.70
2019-06-20T06:14:14.525Z,21.60
2019-06-20T06:16:44.320Z,21.30
2019-06-20T06:19:13.285Z,21.10
2019-06-20T06:21:42.240Z,20.70
2019-06-20T06:24:11.798Z,20.30
2019-06-20T06:26:40.666Z,20.00
2019-06-20T06:29:09.652Z,19.60
2019-06-20T06:31:38.885Z,19.10
2019-06-20T06:34:07.757Z,18.80
2019-06-20T06:36:36.714Z,18.70
2019-06-20T06:39:07.816Z,18.50
2019-06-20T06:41:36.682Z,18.40
2019-06-20T06:44:08.374Z,18.20
2019-06-20T06:46:45.070Z,18.20
2019-06-20T06:51:59.116Z,18.20
2019-06-20T06:54:40.106Z,18.10
2019-06-20T06:57:20.538Z,18.10
2019-06-20T07:00:01.253Z,18.00
2019-06-20T07:02:41.936Z,18.00
2019-06-20T07:05:31.542Z,18.00
2019-06-20T07:08:00.797Z,18.00
2019-06-20T07:10:49.780Z,18.00
2019-06-20T07:13:39.537Z,18.20
2019-06-20T07:16:27.710Z,18.30
2019-06-20T07:19:15.894Z,18.50
2019-06-20T07:22:04.079Z,18.70
2019-06-20T07:24:52.204Z,18.80
2019-06-20T07:27:40.526Z,19.00
2019-06-20T07:30:28.668Z,19.10
2019-06-20T07:32:57.583Z,19.40
2019-06-20T07:35:45.686Z,19.50
2019-06-20T07:38:33.845Z,19.40
2019-06-20T07:41:21.851Z,19.30
2019-06-20T07:43:50.800Z,19.20
2019-06-20T07:46:39.019Z,19.20
2019-06-20T07:49:19.547Z,19.10
2019-06-20T07:52:00.567Z,19.30
2019-06-20T07:54:41.680Z,19.40
2019-06-20T07:57:23.036Z,19.40
2019-06-20T08:00:03.591Z,19.50
2019-06-20T08:02:44.906Z,19.60
2019-06-20T08:05:25.553Z,19.60
2019-06-20T08:08:06.770Z,19.70
2019-06-20T08:10:47.173Z,19.70
2019-06-20T08:13:28.130Z,19.90
2019-06-20T08:16:08.978Z,19.90
2019-06-20T08:18:49.871Z,20.00
2019-06-20T08:21:30.629Z,20.20
2019-06-20T08:24:11.991Z,20.50
2019-06-20T08:26:52.810Z,20.80
2019-06-20T08:29:32.047Z,20.80
2019-06-20T08:32:20.189Z,20.70
2019-06-20T08:35:08.241Z,20.90
2019-06-20T08:37:57.823Z,21.60
2019-06-20T08:40:46.387Z,23.30
2019-06-20T08:43:34.563Z,23.60
2019-06-20T08:46:18.782Z,23.60
2019-06-20T08:48:59.872Z,24.40
2019-06-20T08:51:40.923Z,25.10
2019-06-20T08:54:21.672Z,25.30
2019-06-20T08:57:04.020Z,26.10
2019-06-20T08:59:45.186Z,26.70
2019-06-20T09:02:25.879Z,26.90
2019-06-20T09:05:06.577Z,26.40
2019-06-20T09:07:47.238Z,25.30
2019-06-20T09:10:28.144Z,24.20
2019-06-20T09:13:09.082Z,23.40
2019-06-20T09:15:49.786Z,22.90
2019-06-20T09:18:30.970Z,22.60
2019-06-20T09:21:12.038Z,22.30
2019-06-20T09:23:54.139Z,22.20
2019-06-20T09:26:35.617Z,22.30
2019-06-20T09:29:16.423Z,22.80
2019-06-20T09:31:58.343Z,23.20
2019-06-20T09:34:39.048Z,23.00
2019-06-20T09:37:19.505Z,23.00
2019-06-20T09:40:00.605Z,23.10
2019-06-20T09:42:41.450Z,23.30
2019-06-20T09:45:22.417Z,24.20
2019-06-20T09:48:03.133Z,24.90
2019-06-20T09:50:44.105Z,25.10
2019-06-20T09:53:24.812Z,25.10
2019-06-20T09:56:05.505Z,25.10
2019-06-20T09:58:47.935Z,25.10
2019-06-20T10:01:29.150Z,24.80
2019-06-20T10:04:10.201Z,24.60
2019-06-20T10:06:50.768Z,24.80
2019-06-20T10:09:31.478Z,24.70
2019-06-20T10:12:12.863Z,24.70
2019-06-20T10:14:54.228Z,24.80
2019-06-20T10:17:34.896Z,25.20
2019-06-20T10:20:15.307Z,25.70
2019-06-20T10:22:55.705Z,26.10
2019-06-20T10:25:36.286Z,26.30
2019-06-20T10:28:16.871Z,26.40
2019-06-20T10:30:57.879Z,26.40
2019-06-20T10:33:39.211Z,26.70
2019-06-20T10:36:20.018Z,26.70
2019-06-20T10:39:01.045Z,26.50
2019-06-20T10:41:41.709Z,26.50
2019-06-20T10:44:22.237Z,26.40
2019-06-20T10:47:02.945Z,26.70
2019-06-20T10:49:44.704Z,27.00
2019-06-20T10:52:26.448Z,27.10
2019-06-20T10:55:07.405Z,26.70
2019-06-20T10:57:49.647Z,26.30
2019-06-20T11:00:31.952Z,26.50
2019-06-20T11:03:12.647Z,27.10
2019-06-20T11:08:35.779Z,28.40
2019-06-20T11:11:16.909Z,28.70
2019-06-20T11:13:58.045Z,29.20
2019-06-20T11:16:40.458Z,29.60
2019-06-20T11:19:21.566Z,28.70
2019-06-20T11:22:02.583Z,28.10
2019-06-20T11:24:45.083Z,28.00
2019-06-20T11:27:26.374Z,27.90
2019-06-20T11:30:07.163Z,27.80
2019-06-20T11:32:48.774Z,27.90
2019-06-20T11:35:29.690Z,28.00
2019-06-20T11:38:10.462Z,28.50
2019-06-20T11:40:51.323Z,28.30
2019-06-20T11:43:34.624Z,27.60
2019-06-20T11:46:15.257Z,27.70
2019-06-20T11:48:56.757Z,27.30
2019-06-20T11:51:37.983Z,27.30
2019-06-20T11:54:18.864Z,27.20
2019-06-20T11:56:59.440Z,27.10
2019-06-20T11:59:40.416Z,27.50
2019-06-20T12:05:03.783Z,26.70
2019-06-20T12:07:45.591Z,26.60
2019-06-20T12:10:27.253Z,26.50
2019-06-20T12:13:07.768Z,26.60
2019-06-20T12:15:48.994Z,27.10
2019-06-20T12:18:30.006Z,27.60
2019-06-20T12:21:10.785Z,28.20
2019-06-20T12:23:51.539Z,28.70
2019-06-20T12:26:32.584Z,28.90
2019-06-20T12:29:13.928Z,29.20
2019-06-20T12:31:56.296Z,28.80
2019-06-20T12:34:38.845Z,28.50
2019-06-20T12:37:19.890Z,28.30
2019-06-20T12:40:00.634Z,27.70
2019-06-20T12:42:43.028Z,27.70
2019-06-20T12:45:24.003Z,27.70
2019-06-20T12:48:04.430Z,28.00
2019-06-20T12:50:45.530Z,28.00
2019-06-20T12:53:26.288Z,28.20
2019-06-20T12:56:06.881Z,28.40
2019-06-20T12:58:48.496Z,28.40
2019-06-20T13:01:36.790Z,27.90
2019-06-20T13:04:11.883Z,28.30
2019-06-20T13:06:52.564Z,28.50
2019-06-20T13:09:33.144Z,28.40
2019-06-20T13:12:13.945Z,28.40
2019-06-20T13:14:54.694Z,27.50
2019-06-20T13:17:35.636Z,27.40
2019-06-20T13:20:16.179Z,27.40
2019-06-20T13:22:57.540Z,27.30
2019-06-20T13:25:39.178Z,27.00
2019-06-20T13:28:20.779Z,26.90
2019-06-20T13:31:01.716Z,26.70
2019-06-20T13:33:42.962Z,26.50
2019-06-20T13:36:22.584Z,26.40
2019-06-20T13:39:10.745Z,26.30
2019-06-20T13:41:58.866Z,26.10
2019-06-20T13:44:46.988Z,25.80
2019-06-20T13:47:35.048Z,25.50
2019-06-20T13:50:15.886Z,25.20
2019-06-20T13:52:56.603Z,25.00
2019-06-20T13:55:37.125Z,24.70
2019-06-20T14:01:16.326Z,23.20
2019-06-20T14:06:39.189Z,22.50
2019-06-20T14:09:19.731Z,22.70
2019-06-20T14:14:58.797Z,22.60
2019-06-20T14:17:41.486Z,22.60
2019-06-20T14:20:22.467Z,22.70
2019-06-20T14:23:03.246Z,22.60
2019-06-20T14:32:21.793Z,22.00
2019-06-20T14:34:54.351Z,21.90
2019-06-20T14:37:35.550Z,21.80
2019-06-20T14:40:16.419Z,21.70
2019-06-20T14:42:57.239Z,21.60
2019-06-20T14:48:22.657Z,21.50
2019-06-20T14:54:26.161Z,21.60
2019-06-20T14:57:07.846Z,21.80
2019-06-20T15:05:56.599Z,23.10
2019-06-20T15:08:37.515Z,23.70
2019-06-20T15:14:37.205Z,24.30
